sensor_id;sensor_type;location;lat;lon;timestamp;P1;durP1;ratioP1;P2;durP2;ratioP2
15889;SDS011;8043;49.388;12.128;2024-01-15T00:04:50;11.08;;;6.40;;
15889;SDS011;8043;49.388;12.128;2024-01-15T00:09:54;22.87;;;9.35;;
15889;SDS011;8043;49.388;12.128;2024-01-15T00:15:16;6.28;;;5.65;;
15889;SDS011;8043;49.388;12.128;2024-01-15T00:25:20;20.37;;;7.85;;
15889;SDS011;8043;49.388;12.128;2024-01-15T00:35:24;2.45;;;2.30;;
15889;SDS011;8043;49.388;12.128;2024-01-15T00:45:28;10.85;;;6.17;;
15889;SDS011;8043;49.388;12.128;2024-01-15T00:50:30;8.15;;;5.85;;
15889;SDS011;8043;49.388;12.128;2024-01-15T01:00:34;11.80;;;6.08;;
15889;SDS011;8043;49.388;12.128;2024-01-15T01:10:38;7.37;;;5.67;;
15889;SDS011;8043;49.388;12.128;2024-01-15T01:15:43;14.13;;;7.22;;
15889;SDS011;8043;49.388;12.128;2024-01-15T01:20:45;3.87;;;3.55;;
15889;SDS011;8043;49.388;12.128;2024-01-15T01:30:50;6.67;;;3.35;;
15889;SDS011;8043;49.388;12.128;2024-01-15T01:40:53;14.70;;;6.08;;
15889;SDS011;8043;49.388;12.128;2024-01-15T01:45:56;15.30;;;8.03;;
15889;SDS011;8043;49.388;12.128;2024-01-15T01:50:59;6.25;;;3.92;;
15889;SDS011;8043;49.388;12.128;2024-01-15T01:56:05;10.58;;;4.75;;
15889;SDS011;8043;49.388;12.128;2024-01-15T02:01:07;7.53;;;4.12;;
15889;SDS011;8043;49.388;12.128;2024-01-15T02:06:10;11.30;;;5.45;;
15889;SDS011;8043;49.388;12.128;2024-01-15T02:11:13;10.48;;;5.83;;
15889;SDS011;8043;49.388;12.128;2024-01-15T02:16:15;15.48;;;7.35;;
15889;SDS011;8043;49.388;12.128;2024-01-15T02:21:18;29.95;;;8.73;;
15889;SDS011;8043;49.388;12.128;2024-01-15T02:31:22;14.93;;;11.60;;
15889;SDS011;8043;49.388;12.128;2024-01-15T02:41:47;14.68;;;6.70;;
15889;SDS011;8043;49.388;12.128;2024-01-15T02:46:50;3.22;;;2.33;;
15889;SDS011;8043;49.388;12.128;2024-01-15T02:51:54;18.30;;;5.62;;
15889;SDS011;8043;49.388;12.128;2024-01-15T03:01:58;10.40;;;5.92;;
15889;SDS011;8043;49.388;12.128;2024-01-15T03:07:03;5.50;;;4.80;;
15889;SDS011;8043;49.388;12.128;2024-01-15T03:12:06;9.05;;;5.87;;
15889;SDS011;8043;49.388;12.128;2024-01-15T03:17:09;11.50;;;6.62;;
15889;SDS011;8043;49.388;12.128;2024-01-15T03:22:13;10.25;;;4.92;;
15889;SDS011;8043;49.388;12.128;2024-01-15T03:27:15;27.17;;;8.73;;
15889;SDS011;8043;49.388;12.128;2024-01-15T03:32:18;23.05;;;8.83;;
15889;SDS011;8043;49.388;12.128;2024-01-15T03:37:20;5.20;;;4.17;;
15889;SDS011;8043;49.388;12.128;2024-01-15T03:42:23;31.40;;;6.45;;
15889;SDS011;8043;49.388;12.128;2024-01-15T03:52:27;20.40;;;6.70;;
15889;SDS011;8043;49.388;12.128;2024-01-15T03:57:30;19.10;;;6.08;;
15889;SDS011;8043;49.388;12.128;2024-01-15T04:02:32;16.35;;;4.72;;
15889;SDS011;8043;49.388;12.128;2024-01-15T04:07:36;9.03;;;6.17;;
15889;SDS011;8043;49.388;12.128;2024-01-15T04:12:39;14.87;;;6.58;;
15889;SDS011;8043;49.388;12.128;2024-01-15T04:22:43;9.10;;;2.75;;
15889;SDS011;8043;49.388;12.128;2024-01-15T04:27:46;13.55;;;5.35;;
15889;SDS011;8043;49.388;12.128;2024-01-15T04:37:50;11.20;;;4.72;;
15889;SDS011;8043;49.388;12.128;2024-01-15T04:42:53;15.25;;;4.00;;
15889;SDS011;8043;49.388;12.128;2024-01-15T04:47:56;9.85;;;4.90;;
15889;SDS011;8043;49.388;12.128;2024-01-15T04:58:00;11.95;;;3.77;;
15889;SDS011;8043;49.388;12.128;2024-01-15T05:08:05;10.57;;;3.40;;
15889;SDS011;8043;49.388;12.128;2024-01-15T05:13:07;10.68;;;5.17;;
15889;SDS011;8043;49.388;12.128;2024-01-15T05:18:09;8.30;;;4.95;;
15889;SDS011;8043;49.388;12.128;2024-01-15T05:28:14;5.87;;;4.37;;
15889;SDS011;8043;49.388;12.128;2024-01-15T05:33:17;4.20;;;2.77;;
15889;SDS011;8043;49.388;12.128;2024-01-15T05:38:19;9.75;;;3.35;;
15889;SDS011;8043;49.388;12.128;2024-01-15T05:43:21;8.80;;;4.12;;
15889;SDS011;8043;49.388;12.128;2024-01-15T05:48:24;12.43;;;3.75;;
15889;SDS011;8043;49.388;12.128;2024-01-15T05:53:26;16.15;;;4.72;;
15889;SDS011;8043;49.388;12.128;2024-01-15T05:58:29;6.42;;;4.55;;
15889;SDS011;8043;49.388;12.128;2024-01-15T06:03:32;13.03;;;7.12;;
15889;SDS011;8043;49.388;12.128;2024-01-15T06:08:34;6.90;;;2.98;;
15889;SDS011;8043;49.388;12.128;2024-01-15T06:13:37;6.75;;;3.75;;
15889;SDS011;8043;49.388;12.128;2024-01-15T06:18:39;9.98;;;2.15;;
15889;SDS011;8043;49.388;12.128;2024-01-15T06:23:42;3.77;;;3.10;;
15889;SDS011;8043;49.388;12.128;2024-01-15T06:28:44;6.95;;;5.35;;
15889;SDS011;8043;49.388;12.128;2024-01-15T06:33:46;8.88;;;3.10;;
15889;SDS011;8043;49.388;12.128;2024-01-15T06:38:49;17.25;;;4.75;;
15889;SDS011;8043;49.388;12.128;2024-01-15T06:43:53;11.15;;;3.17;;
15889;SDS011;8043;49.388;12.128;2024-01-15T06:49:16;13.72;;;5.65;;
15889;SDS011;8043;49.388;12.128;2024-01-15T06:54:18;9.68;;;3.52;;
15889;SDS011;8043;49.388;12.128;2024-01-15T07:04:22;17.32;;;5.12;;
15889;SDS011;8043;49.388;12.128;2024-01-15T07:09:25;2.67;;;2.50;;
15889;SDS011;8043;49.388;12.128;2024-01-15T07:14:27;13.28;;;4.60;;
15889;SDS011;8043;49.388;12.128;2024-01-15T07:19:29;5.30;;;2.83;;
15889;SDS011;8043;49.388;12.128;2024-01-15T07:24:33;1.55;;;1.07;;
15889;SDS011;8043;49.388;12.128;2024-01-15T07:29:36;10.43;;;6.20;;
15889;SDS011;8043;49.388;12.128;2024-01-15T07:34:38;9.83;;;3.67;;
15889;SDS011;8043;49.388;12.128;2024-01-15T07:39:41;9.33;;;3.10;;
15889;SDS011;8043;49.388;12.128;2024-01-15T07:44:43;6.90;;;2.67;;
15889;SDS011;8043;49.388;12.128;2024-01-15T07:49:46;14.15;;;4.62;;
15889;SDS011;8043;49.388;12.128;2024-01-15T07:59:50;2.02;;;1.92;;
15889;SDS011;8043;49.388;12.128;2024-01-15T08:04:55;7.35;;;4.15;;
15889;SDS011;8043;49.388;12.128;2024-01-15T08:09:57;1.45;;;1.35;;
15889;SDS011;8043;49.388;12.128;2024-01-15T08:15:00;10.58;;;2.87;;
15889;SDS011;8043;49.388;12.128;2024-01-15T08:20:02;4.37;;;2.47;;
15889;SDS011;8043;49.388;12.128;2024-01-15T08:25:05;10.85;;;5.12;;
15889;SDS011;8043;49.388;12.128;2024-01-15T08:30:09;10.58;;;4.83;;
15889;SDS011;8043;49.388;12.128;2024-01-15T08:35:12;9.10;;;3.65;;
15889;SDS011;8043;49.388;12.128;2024-01-15T08:40:15;10.58;;;2.80;;
15889;SDS011;8043;49.388;12.128;2024-01-15T08:45:17;9.83;;;4.85;;
15889;SDS011;8043;49.388;12.128;2024-01-15T08:50:20;9.78;;;4.10;;
15889;SDS011;8043;49.388;12.128;2024-01-15T08:55:23;10.38;;;4.55;;
15889;SDS011;8043;49.388;12.128;2024-01-15T09:00:25;8.78;;;5.17;;
15889;SDS011;8043;49.388;12.128;2024-01-15T09:10:29;3.45;;;3.10;;
15889;SDS011;8043;49.388;12.128;2024-01-15T09:15:32;6.75;;;3.45;;
15889;SDS011;8043;49.388;12.128;2024-01-15T09:20:34;13.18;;;3.33;;
15889;SDS011;8043;49.388;12.128;2024-01-15T09:25:38;10.55;;;3.25;;
15889;SDS011;8043;49.388;12.128;2024-01-15T09:35:43;9.23;;;3.27;;
15889;SDS011;8043;49.388;12.128;2024-01-15T09:40:45;4.72;;;3.15;;
15889;SDS011;8043;49.388;12.128;2024-01-15T09:45:52;10.60;;;3.83;;
15889;SDS011;8043;49.388;12.128;2024-01-15T09:50:56;5.10;;;2.77;;
15889;SDS011;8043;49.388;12.128;2024-01-15T09:55:59;6.10;;;2.10;;
15889;SDS011;8043;49.388;12.128;2024-01-15T10:06:06;0.33;;;0.33;;
15889;SDS011;8043;49.388;12.128;2024-01-15T10:11:10;7.60;;;1.67;;
15889;SDS011;8043;49.388;12.128;2024-01-15T10:16:13;6.20;;;2.95;;
15889;SDS011;8043;49.388;12.128;2024-01-15T10:21:15;6.70;;;3.83;;
15889;SDS011;8043;49.388;12.128;2024-01-15T10:26:18;1.80;;;1.62;;
15889;SDS011;8043;49.388;12.128;2024-01-15T10:31:20;12.88;;;2.92;;
15889;SDS011;8043;49.388;12.128;2024-01-15T10:36:23;4.87;;;3.37;;
15889;SDS011;8043;49.388;12.128;2024-01-15T10:41:27;4.35;;;3.42;;
15889;SDS011;8043;49.388;12.128;2024-01-15T10:46:30;5.10;;;3.17;;
15889;SDS011;8043;49.388;12.128;2024-01-15T10:51:34;3.95;;;3.05;;
15889;SDS011;8043;49.388;12.128;2024-01-15T10:56:37;4.55;;;2.87;;
15889;SDS011;8043;49.388;12.128;2024-01-15T11:01:39;7.95;;;3.00;;
15889;SDS011;8043;49.388;12.128;2024-01-15T11:06:49;3.12;;;2.52;;
15889;SDS011;8043;49.388;12.128;2024-01-15T11:11:54;3.58;;;2.77;;
15889;SDS011;8043;49.388;12.128;2024-01-15T11:16:54;6.75;;;3.87;;
15889;SDS011;8043;49.388;12.128;2024-01-15T11:22:01;6.83;;;3.70;;
15889;SDS011;8043;49.388;12.128;2024-01-15T11:27:03;2.02;;;1.47;;
15889;SDS011;8043;49.388;12.128;2024-01-15T11:32:09;2.80;;;2.60;;
15889;SDS011;8043;49.388;12.128;2024-01-15T11:37:14;14.95;;;2.92;;
15889;SDS011;8043;49.388;12.128;2024-01-15T11:42:16;3.27;;;2.30;;
15889;SDS011;8043;49.388;12.128;2024-01-15T11:47:23;2.80;;;1.42;;
15889;SDS011;8043;49.388;12.128;2024-01-15T11:52:34;4.08;;;2.20;;
15889;SDS011;8043;49.388;12.128;2024-01-15T12:02:48;8.18;;;3.15;;
15889;SDS011;8043;49.388;12.128;2024-01-15T12:07:51;9.65;;;3.27;;
15889;SDS011;8043;49.388;12.128;2024-01-15T12:12:56;5.92;;;3.40;;
15889;SDS011;8043;49.388;12.128;2024-01-15T12:18:02;12.10;;;1.70;;
15889;SDS011;8043;49.388;12.128;2024-01-15T12:23:05;3.02;;;2.33;;
15889;SDS011;8043;49.388;12.128;2024-01-15T12:28:07;1.50;;;1.40;;
15889;SDS011;8043;49.388;12.128;2024-01-15T12:33:11;2.77;;;2.35;;
15889;SDS011;8043;49.388;12.128;2024-01-15T12:38:14;1.42;;;1.32;;
15889;SDS011;8043;49.388;12.128;2024-01-15T12:43:18;12.58;;;2.90;;
15889;SDS011;8043;49.388;12.128;2024-01-15T12:48:22;3.60;;;2.12;;
15889;SDS011;8043;49.388;12.128;2024-01-15T12:53:24;2.02;;;1.55;;
15889;SDS011;8043;49.388;12.128;2024-01-15T12:58:26;1.62;;;1.52;;
15889;SDS011;8043;49.388;12.128;2024-01-15T13:08:30;8.15;;;2.98;;
15889;SDS011;8043;49.388;12.128;2024-01-15T13:18:34;7.15;;;1.27;;
15889;SDS011;8043;49.388;12.128;2024-01-15T13:23:37;3.62;;;2.10;;
15889;SDS011;8043;49.388;12.128;2024-01-15T13:28:39;0.90;;;0.90;;
15889;SDS011;8043;49.388;12.128;2024-01-15T13:33:42;1.90;;;1.80;;
15889;SDS011;8043;49.388;12.128;2024-01-15T13:38:45;12.55;;;2.83;;
15889;SDS011;8043;49.388;12.128;2024-01-15T13:43:50;2.92;;;2.05;;
15889;SDS011;8043;49.388;12.128;2024-01-15T13:48:53;6.08;;;3.42;;
15889;SDS011;8043;49.388;12.128;2024-01-15T13:53:56;3.12;;;2.35;;
15889;SDS011;8043;49.388;12.128;2024-01-15T14:04:00;0.60;;;0.60;;
15889;SDS011;8043;49.388;12.128;2024-01-15T14:09:02;2.17;;;1.15;;
15889;SDS011;8043;49.388;12.128;2024-01-15T14:14:08;1.82;;;1.72;;
15889;SDS011;8043;49.388;12.128;2024-01-15T14:19:10;0.85;;;0.85;;
15889;SDS011;8043;49.388;12.128;2024-01-15T14:24:12;1.55;;;1.45;;
15889;SDS011;8043;49.388;12.128;2024-01-15T14:29:16;2.62;;;2.40;;
15889;SDS011;8043;49.388;12.128;2024-01-15T14:34:20;3.98;;;2.40;;
15889;SDS011;8043;49.388;12.128;2024-01-15T14:39:24;3.00;;;2.15;;
15889;SDS011;8043;49.388;12.128;2024-01-15T14:44:27;1.00;;;1.00;;
15889;SDS011;8043;49.388;12.128;2024-01-15T14:54:32;2.60;;;1.97;;
15889;SDS011;8043;49.388;12.128;2024-01-15T14:59:35;1.00;;;1.00;;
15889;SDS011;8043;49.388;12.128;2024-01-15T15:04:38;3.00;;;2.00;;
15889;SDS011;8043;49.388;12.128;2024-01-15T15:09:40;3.95;;;1.62;;
15889;SDS011;8043;49.388;12.128;2024-01-15T15:14:43;6.80;;;2.75;;
15889;SDS011;8043;49.388;12.128;2024-01-15T15:19:46;1.50;;;1.40;;
15889;SDS011;8043;49.388;12.128;2024-01-15T15:24:49;2.72;;;1.72;;
15889;SDS011;8043;49.388;12.128;2024-01-15T15:29:51;1.40;;;1.27;;
15889;SDS011;8043;49.388;12.128;2024-01-15T15:34:54;0.80;;;0.80;;
15889;SDS011;8043;49.388;12.128;2024-01-15T15:39:57;1.82;;;1.72;;
15889;SDS011;8043;49.388;12.128;2024-01-15T15:45:00;0.88;;;0.85;;
15889;SDS011;8043;49.388;12.128;2024-01-15T15:50:04;3.10;;;1.60;;
15889;SDS011;8043;49.388;12.128;2024-01-15T15:55:08;2.42;;;2.22;;
15889;SDS011;8043;49.388;12.128;2024-01-15T16:00:11;3.90;;;2.35;;
15889;SDS011;8043;49.388;12.128;2024-01-15T16:05:17;1.87;;;1.77;;
15889;SDS011;8043;49.388;12.128;2024-01-15T16:10:19;1.90;;;1.77;;
15889;SDS011;8043;49.388;12.128;2024-01-15T16:15:22;1.27;;;1.20;;
15889;SDS011;8043;49.388;12.128;2024-01-15T16:25:28;1.15;;;1.12;;
15889;SDS011;8043;49.388;12.128;2024-01-15T16:30:31;1.02;;;1.00;;
15889;SDS011;8043;49.388;12.128;2024-01-15T16:40:35;1.92;;;1.07;;
15889;SDS011;8043;49.388;12.128;2024-01-15T16:45:37;5.37;;;2.60;;
15889;SDS011;8043;49.388;12.128;2024-01-15T16:50:40;1.10;;;1.10;;
15889;SDS011;8043;49.388;12.128;2024-01-15T16:55:44;1.62;;;1.47;;
15889;SDS011;8043;49.388;12.128;2024-01-15T17:05:51;4.42;;;1.65;;
15889;SDS011;8043;49.388;12.128;2024-01-15T17:10:54;1.30;;;1.25;;
15889;SDS011;8043;49.388;12.128;2024-01-15T17:15:56;3.40;;;1.90;;
15889;SDS011;8043;49.388;12.128;2024-01-15T17:20:59;1.32;;;1.30;;
15889;SDS011;8043;49.388;12.128;2024-01-15T17:26:02;2.50;;;2.02;;
15889;SDS011;8043;49.388;12.128;2024-01-15T17:31:04;2.50;;;1.82;;
15889;SDS011;8043;49.388;12.128;2024-01-15T17:36:08;3.05;;;2.30;;
15889;SDS011;8043;49.388;12.128;2024-01-15T17:41:11;6.55;;;3.20;;
15889;SDS011;8043;49.388;12.128;2024-01-15T17:46:13;3.42;;;1.20;;
15889;SDS011;8043;49.388;12.128;2024-01-15T17:51:19;2.50;;;1.45;;
15889;SDS011;8043;49.388;12.128;2024-01-15T17:56:22;6.00;;;2.10;;
15889;SDS011;8043;49.388;12.128;2024-01-15T18:06:26;1.72;;;1.62;;
15889;SDS011;8043;49.388;12.128;2024-01-15T18:11:28;1.67;;;1.57;;
15889;SDS011;8043;49.388;12.128;2024-01-15T18:16:32;3.08;;;1.95;;
15889;SDS011;8043;49.388;12.128;2024-01-15T18:26:39;1.45;;;1.17;;
15889;SDS011;8043;49.388;12.128;2024-01-15T18:31:41;1.33;;;1.27;;
15889;SDS011;8043;49.388;12.128;2024-01-15T18:36:43;4.42;;;1.67;;
15889;SDS011;8043;49.388;12.128;2024-01-15T18:41:47;5.12;;;1.98;;
15889;SDS011;8043;49.388;12.128;2024-01-15T18:46:49;4.30;;;2.35;;
15889;SDS011;8043;49.388;12.128;2024-01-15T18:51:52;2.58;;;2.37;;
15889;SDS011;8043;49.388;12.128;2024-01-15T18:56:56;2.83;;;2.58;;
15889;SDS011;8043;49.388;12.128;2024-01-15T19:01:59;1.00;;;1.00;;
15889;SDS011;8043;49.388;12.128;2024-01-15T19:07:01;3.72;;;2.37;;
15889;SDS011;8043;49.388;12.128;2024-01-15T19:12:04;6.33;;;2.87;;
15889;SDS011;8043;49.388;12.128;2024-01-15T19:17:08;1.77;;;1.67;;
15889;SDS011;8043;49.388;12.128;2024-01-15T19:22:11;6.42;;;1.37;;
15889;SDS011;8043;49.388;12.128;2024-01-15T19:32:15;1.42;;;1.32;;
15889;SDS011;8043;49.388;12.128;2024-01-15T19:42:21;2.85;;;2.22;;
15889;SDS011;8043;49.388;12.128;2024-01-15T19:47:24;2.52;;;2.33;;
15889;SDS011;8043;49.388;12.128;2024-01-15T19:52:28;2.20;;;2.05;;
15889;SDS011;8043;49.388;12.128;2024-01-15T20:02:33;3.10;;;1.80;;
15889;SDS011;8043;49.388;12.128;2024-01-15T20:07:36;7.85;;;3.00;;
15889;SDS011;8043;49.388;12.128;2024-01-15T20:12:39;2.12;;;1.98;;
15889;SDS011;8043;49.388;12.128;2024-01-15T20:17:41;4.62;;;4.20;;
15889;SDS011;8043;49.388;12.128;2024-01-15T20:22:44;1.70;;;1.47;;
15889;SDS011;8043;49.388;12.128;2024-01-15T20:27:47;3.12;;;2.72;;
15889;SDS011;8043;49.388;12.128;2024-01-15T20:32:49;1.42;;;1.27;;
15889;SDS011;8043;49.388;12.128;2024-01-15T20:37:52;4.35;;;2.95;;
15889;SDS011;8043;49.388;12.128;2024-01-15T20:42:56;1.57;;;1.47;;
15889;SDS011;8043;49.388;12.128;2024-01-15T20:47:59;1.52;;;0.90;;
15889;SDS011;8043;49.388;12.128;2024-01-15T20:53:01;1.72;;;1.62;;
15889;SDS011;8043;49.388;12.128;2024-01-15T20:58:04;3.83;;;2.52;;
15889;SDS011;8043;49.388;12.128;2024-01-15T21:03:08;3.30;;;1.35;;
15889;SDS011;8043;49.388;12.128;2024-01-15T21:08:11;1.75;;;1.32;;
15889;SDS011;8043;49.388;12.128;2024-01-15T21:13:14;4.60;;;3.02;;
15889;SDS011;8043;49.388;12.128;2024-01-15T21:18:20;4.05;;;1.47;;
15889;SDS011;8043;49.388;12.128;2024-01-15T21:23:22;1.37;;;1.35;;
15889;SDS011;8043;49.388;12.128;2024-01-15T21:28:25;1.62;;;1.55;;
15889;SDS011;8043;49.388;12.128;2024-01-15T21:33:29;9.53;;;4.00;;
15889;SDS011;8043;49.388;12.128;2024-01-15T21:38:32;6.50;;;1.85;;
15889;SDS011;8043;49.388;12.128;2024-01-15T21:43:36;2.70;;;2.45;;
15889;SDS011;8043;49.388;12.128;2024-01-15T21:48:40;2.22;;;2.02;;
15889;SDS011;8043;49.388;12.128;2024-01-15T21:53:43;2.35;;;2.17;;
15889;SDS011;8043;49.388;12.128;2024-01-15T21:58:46;4.30;;;2.22;;
15889;SDS011;8043;49.388;12.128;2024-01-15T22:03:49;2.25;;;2.15;;
15889;SDS011;8043;49.388;12.128;2024-01-15T22:08:53;3.25;;;2.02;;
15889;SDS011;8043;49.388;12.128;2024-01-15T22:13:56;2.72;;;1.85;;
15889;SDS011;8043;49.388;12.128;2024-01-15T22:18:58;2.00;;;1.75;;
15889;SDS011;8043;49.388;12.128;2024-01-15T22:24:01;8.95;;;2.62;;
15889;SDS011;8043;49.388;12.128;2024-01-15T22:29:06;3.22;;;2.58;;
15889;SDS011;8043;49.388;12.128;2024-01-15T22:34:36;1.47;;;1.35;;
15889;SDS011;8043;49.388;12.128;2024-01-15T22:39:38;7.80;;;3.02;;
15889;SDS011;8043;49.388;12.128;2024-01-15T22:44:41;1.95;;;1.85;;
15889;SDS011;8043;49.388;12.128;2024-01-15T22:54:45;0.60;;;0.60;;
15889;SDS011;8043;49.388;12.128;2024-01-15T22:59:49;2.22;;;2.05;;
15889;SDS011;8043;49.388;12.128;2024-01-15T23:04:52;24.27;;;2.90;;
15889;SDS011;8043;49.388;12.128;2024-01-15T23:09:54;3.80;;;2.37;;
15889;SDS011;8043;49.388;12.128;2024-01-15T23:14:57;3.05;;;2.47;;
15889;SDS011;8043;49.388;12.128;2024-01-15T23:19:59;3.12;;;2.62;;
15889;SDS011;8043;49.388;12.128;2024-01-15T23:25:05;0.62;;;0.62;;
15889;SDS011;8043;49.388;12.128;2024-01-15T23:30:08;2.05;;;1.85;;
15889;SDS011;8043;49.388;12.128;2024-01-15T23:35:11;2.25;;;2.05;;
15889;SDS011;8043;49.388;12.128;2024-01-15T23:40:14;7.45;;;1.77;;
15889;SDS011;8043;49.388;12.128;2024-01-15T23:45:16;0.93;;;0.93;;
15889;SDS011;8043;49.388;12.128;2024-01-15T23:50:19;5.62;;;2.15;;
15889;SDS011;8043;49.388;12.128;2024-01-15T23:55:21;5.95;;;2.27;;
